Terminal Aerodrome Forecast
Issued by NWS

Home | Current Version | Previous Version | Text Only | Print | Product List | Glossary On
Versions: 1 2 3 4 5 6 7 8 9 10 11 12 13 14 15 16 17
000
FTUS45 KRIW 281400 AAB
TAFCPR
TAF AMD
KCPR 281430Z 2815/0112 04012KT 4SM -SN BR SCT015 BKN035
     FM282300 03007KT P6SM VCSH SCT016 OVC026
     FM010500 02006KT 5SM BR SCT012 OVC025=

USA.gov is the U.S. government's official web portal to all federal, state and local government web resources and services.